sensor_id;sensor_type;location;lat;lon;timestamp;temperature;humidity
7516;DHT22;3799;47.184;8.538;2023-04-25T00:00:18;10.60;97.70
7516;DHT22;3799;47.184;8.538;2023-04-25T00:02:57;10.70;99.40
7516;DHT22;3799;47.184;8.538;2023-04-25T00:05:26;10.80;99.90
7516;DHT22;3799;47.184;8.538;2023-04-25T00:07:54;10.50;99.90
7516;DHT22;3799;47.184;8.538;2023-04-25T00:10:24;10.90;99.90
7516;DHT22;3799;47.184;8.538;2023-04-25T00:12:51;10.80;99.60
7516;DHT22;3799;47.184;8.538;2023-04-25T00:15:19;10.60;99.10
7516;DHT22;3799;47.184;8.538;2023-04-25T00:17:47;10.60;98.90
7516;DHT22;3799;47.184;8.538;2023-04-25T00:20:15;10.70;98.90
7516;DHT22;3799;47.184;8.538;2023-04-25T00:22:42;10.60;99.20
7516;DHT22;3799;47.184;8.538;2023-04-25T00:25:09;10.70;99.60
7516;DHT22;3799;47.184;8.538;2023-04-25T00:27:37;10.60;99.90
7516;DHT22;3799;47.184;8.538;2023-04-25T00:30:06;10.80;99.90
7516;DHT22;3799;47.184;8.538;2023-04-25T00:32:37;10.80;99.60
7516;DHT22;3799;47.184;8.538;2023-04-25T00:35:05;10.60;99.80
7516;DHT22;3799;47.184;8.538;2023-04-25T00:37:33;10.50;99.10
7516;DHT22;3799;47.184;8.538;2023-04-25T00:40:00;10.70;98.70
7516;DHT22;3799;47.184;8.538;2023-04-25T00:42:28;10.60;98.40
7516;DHT22;3799;47.184;8.538;2023-04-25T00:44:58;10.60;98.30
7516;DHT22;3799;47.184;8.538;2023-04-25T00:47:25;10.50;98.10
7516;DHT22;3799;47.184;8.538;2023-04-25T00:49:52;10.70;98.20
7516;DHT22;3799;47.184;8.538;2023-04-25T00:52:20;10.50;98.60
7516;DHT22;3799;47.184;8.538;2023-04-25T00:54:47;10.40;99.70
7516;DHT22;3799;47.184;8.538;2023-04-25T00:57:18;10.70;99.90
7516;DHT22;3799;47.184;8.538;2023-04-25T00:59:45;10.50;99.90
7516;DHT22;3799;47.184;8.538;2023-04-25T01:02:13;10.50;99.90
7516;DHT22;3799;47.184;8.538;2023-04-25T01:04:41;10.50;99.90
7516;DHT22;3799;47.184;8.538;2023-04-25T01:07:09;10.60;99.90
7516;DHT22;3799;47.184;8.538;2023-04-25T01:09:37;10.70;99.60
7516;DHT22;3799;47.184;8.538;2023-04-25T01:12:05;10.50;98.40
7516;DHT22;3799;47.184;8.538;2023-04-25T01:14:33;10.50;98.40
7516;DHT22;3799;47.184;8.538;2023-04-25T01:17:00;10.60;98.40
7516;DHT22;3799;47.184;8.538;2023-04-25T01:19:28;10.60;97.40
7516;DHT22;3799;47.184;8.538;2023-04-25T01:21:55;10.50;96.40
7516;DHT22;3799;47.184;8.538;2023-04-25T01:24:23;10.50;94.70
7516;DHT22;3799;47.184;8.538;2023-04-25T01:26:51;10.60;95.10
7516;DHT22;3799;47.184;8.538;2023-04-25T01:29:19;10.60;94.90
7516;DHT22;3799;47.184;8.538;2023-04-25T01:31:47;10.40;93.90
7516;DHT22;3799;47.184;8.538;2023-04-25T01:34:14;10.70;93.00
7516;DHT22;3799;47.184;8.538;2023-04-25T01:36:42;10.60;92.40
7516;DHT22;3799;47.184;8.538;2023-04-25T01:39:10;10.70;92.00
7516;DHT22;3799;47.184;8.538;2023-04-25T01:41:38;10.80;91.80
7516;DHT22;3799;47.184;8.538;2023-04-25T01:44:06;10.70;91.70
7516;DHT22;3799;47.184;8.538;2023-04-25T01:46:39;10.70;91.90
7516;DHT22;3799;47.184;8.538;2023-04-25T01:49:07;10.70;91.90
7516;DHT22;3799;47.184;8.538;2023-04-25T01:51:34;10.50;91.60
7516;DHT22;3799;47.184;8.538;2023-04-25T01:54:01;10.60;90.80
7516;DHT22;3799;47.184;8.538;2023-04-25T01:56:33;10.40;90.50
7516;DHT22;3799;47.184;8.538;2023-04-25T01:59:05;10.80;90.50
7516;DHT22;3799;47.184;8.538;2023-04-25T02:01:33;10.40;90.30
7516;DHT22;3799;47.184;8.538;2023-04-25T02:04:00;10.50;90.50
7516;DHT22;3799;47.184;8.538;2023-04-25T02:06:28;10.50;90.70
7516;DHT22;3799;47.184;8.538;2023-04-25T02:08:56;10.60;91.20
7516;DHT22;3799;47.184;8.538;2023-04-25T02:11:24;10.60;91.30
7516;DHT22;3799;47.184;8.538;2023-04-25T02:13:51;10.40;91.20
7516;DHT22;3799;47.184;8.538;2023-04-25T02:16:19;10.20;91.30
7516;DHT22;3799;47.184;8.538;2023-04-25T02:18:46;10.50;91.70
7516;DHT22;3799;47.184;8.538;2023-04-25T02:21:14;10.40;92.10
7516;DHT22;3799;47.184;8.538;2023-04-25T02:23:44;10.40;92.60
7516;DHT22;3799;47.184;8.538;2023-04-25T02:26:16;10.20;92.90
7516;DHT22;3799;47.184;8.538;2023-04-25T02:28:43;10.10;93.60
7516;DHT22;3799;47.184;8.538;2023-04-25T02:31:11;10.20;94.70
7516;DHT22;3799;47.184;8.538;2023-04-25T02:33:38;9.80;95.70
7516;DHT22;3799;47.184;8.538;2023-04-25T02:36:06;9.90;96.70
7516;DHT22;3799;47.184;8.538;2023-04-25T02:38:41;9.90;97.30
7516;DHT22;3799;47.184;8.538;2023-04-25T02:41:08;9.80;97.70
7516;DHT22;3799;47.184;8.538;2023-04-25T02:43:36;9.50;97.90
7516;DHT22;3799;47.184;8.538;2023-04-25T02:46:04;9.70;98.50
7516;DHT22;3799;47.184;8.538;2023-04-25T02:48:32;9.80;99.20
7516;DHT22;3799;47.184;8.538;2023-04-25T02:51:00;9.70;99.70
7516;DHT22;3799;47.184;8.538;2023-04-25T02:53:27;9.70;99.90
7516;DHT22;3799;47.184;8.538;2023-04-25T02:55:55;9.60;99.90
7516;DHT22;3799;47.184;8.538;2023-04-25T02:58:25;9.80;99.90
7516;DHT22;3799;47.184;8.538;2023-04-25T03:00:54;9.30;99.90
7516;DHT22;3799;47.184;8.538;2023-04-25T03:03:22;9.80;99.90
7516;DHT22;3799;47.184;8.538;2023-04-25T03:05:51;9.60;99.90
7516;DHT22;3799;47.184;8.538;2023-04-25T03:08:18;9.80;99.90
7516;DHT22;3799;47.184;8.538;2023-04-25T03:10:46;9.50;99.90
7516;DHT22;3799;47.184;8.538;2023-04-25T03:13:20;9.40;99.90
7516;DHT22;3799;47.184;8.538;2023-04-25T03:15:48;9.70;99.90
7516;DHT22;3799;47.184;8.538;2023-04-25T03:18:16;9.40;99.90
7516;DHT22;3799;47.184;8.538;2023-04-25T03:20:44;9.80;99.90
7516;DHT22;3799;47.184;8.538;2023-04-25T03:23:20;9.70;99.90
7516;DHT22;3799;47.184;8.538;2023-04-25T03:25:47;9.50;99.90
7516;DHT22;3799;47.184;8.538;2023-04-25T03:28:15;9.30;99.90
7516;DHT22;3799;47.184;8.538;2023-04-25T03:30:43;9.40;99.90
7516;DHT22;3799;47.184;8.538;2023-04-25T03:33:10;9.50;99.90
7516;DHT22;3799;47.184;8.538;2023-04-25T03:35:38;9.30;99.90
7516;DHT22;3799;47.184;8.538;2023-04-25T03:38:19;9.40;99.90
7516;DHT22;3799;47.184;8.538;2023-04-25T03:40:46;9.30;99.90
7516;DHT22;3799;47.184;8.538;2023-04-25T03:43:14;9.40;99.90
7516;DHT22;3799;47.184;8.538;2023-04-25T03:45:43;9.30;99.90
7516;DHT22;3799;47.184;8.538;2023-04-25T03:48:11;9.30;99.90
7516;DHT22;3799;47.184;8.538;2023-04-25T03:50:38;9.50;99.90
7516;DHT22;3799;47.184;8.538;2023-04-25T03:53:06;9.30;99.90
7516;DHT22;3799;47.184;8.538;2023-04-25T03:55:33;9.20;99.90
7516;DHT22;3799;47.184;8.538;2023-04-25T03:58:00;9.40;99.90
7516;DHT22;3799;47.184;8.538;2023-04-25T04:00:37;9.30;99.90
7516;DHT22;3799;47.184;8.538;2023-04-25T04:03:05;9.20;99.90
7516;DHT22;3799;47.184;8.538;2023-04-25T04:05:33;9.20;99.90
7516;DHT22;3799;47.184;8.538;2023-04-25T04:08:00;9.30;99.90
7516;DHT22;3799;47.184;8.538;2023-04-25T04:10:28;9.30;99.90
7516;DHT22;3799;47.184;8.538;2023-04-25T04:12:59;9.40;99.90
7516;DHT22;3799;47.184;8.538;2023-04-25T04:15:27;9.20;99.90
7516;DHT22;3799;47.184;8.538;2023-04-25T04:17:54;9.30;99.90
7516;DHT22;3799;47.184;8.538;2023-04-25T04:20:22;9.20;99.90
7516;DHT22;3799;47.184;8.538;2023-04-25T04:22:50;9.30;99.90
7516;DHT22;3799;47.184;8.538;2023-04-25T04:25:18;9.40;99.90
7516;DHT22;3799;47.184;8.538;2023-04-25T04:27:46;9.40;99.90
7516;DHT22;3799;47.184;8.538;2023-04-25T04:30:14;9.40;99.90
7516;DHT22;3799;47.184;8.538;2023-04-25T04:32:41;9.20;99.90
7516;DHT22;3799;47.184;8.538;2023-04-25T04:35:09;9.40;99.90
7516;DHT22;3799;47.184;8.538;2023-04-25T04:37:38;9.50;99.90
7516;DHT22;3799;47.184;8.538;2023-04-25T04:40:06;9.30;99.90
7516;DHT22;3799;47.184;8.538;2023-04-25T04:42:33;9.60;99.90
7516;DHT22;3799;47.184;8.538;2023-04-25T04:45:01;9.50;99.90
7516;DHT22;3799;47.184;8.538;2023-04-25T04:47:32;9.50;99.90
7516;DHT22;3799;47.184;8.538;2023-04-25T04:50:03;9.70;99.90
7516;DHT22;3799;47.184;8.538;2023-04-25T04:52:31;9.60;99.90
7516;DHT22;3799;47.184;8.538;2023-04-25T04:54:58;9.40;99.90
7516;DHT22;3799;47.184;8.538;2023-04-25T04:57:25;9.40;99.90
7516;DHT22;3799;47.184;8.538;2023-04-25T04:59:53;9.60;99.90
7516;DHT22;3799;47.184;8.538;2023-04-25T05:02:20;9.40;99.90
7516;DHT22;3799;47.184;8.538;2023-04-25T05:04:48;9.60;99.90
7516;DHT22;3799;47.184;8.538;2023-04-25T05:07:15;9.70;99.90
7516;DHT22;3799;47.184;8.538;2023-04-25T05:09:43;9.50;99.90
7516;DHT22;3799;47.184;8.538;2023-04-25T05:12:10;9.40;99.90
7516;DHT22;3799;47.184;8.538;2023-04-25T05:14:38;9.60;99.90
7516;DHT22;3799;47.184;8.538;2023-04-25T05:17:22;9.70;99.90
7516;DHT22;3799;47.184;8.538;2023-04-25T05:19:49;9.70;99.90
7516;DHT22;3799;47.184;8.538;2023-04-25T05:22:17;9.70;99.90
7516;DHT22;3799;47.184;8.538;2023-04-25T05:24:44;9.50;99.90
7516;DHT22;3799;47.184;8.538;2023-04-25T05:27:12;9.50;99.90
7516;DHT22;3799;47.184;8.538;2023-04-25T05:29:40;9.70;99.90
7516;DHT22;3799;47.184;8.538;2023-04-25T05:32:07;9.50;99.90
7516;DHT22;3799;47.184;8.538;2023-04-25T05:34:36;9.50;99.90
7516;DHT22;3799;47.184;8.538;2023-04-25T05:37:04;9.60;99.90
7516;DHT22;3799;47.184;8.538;2023-04-25T05:39:31;10.00;99.90
7516;DHT22;3799;47.184;8.538;2023-04-25T05:42:05;10.10;99.90
7516;DHT22;3799;47.184;8.538;2023-04-25T05:44:32;9.80;99.90
7516;DHT22;3799;47.184;8.538;2023-04-25T05:47:00;10.00;99.90
7516;DHT22;3799;47.184;8.538;2023-04-25T05:49:28;10.20;99.90
7516;DHT22;3799;47.184;8.538;2023-04-25T05:52:04;10.10;99.60
7516;DHT22;3799;47.184;8.538;2023-04-25T05:54:32;10.20;99.70
7516;DHT22;3799;47.184;8.538;2023-04-25T05:56:59;10.40;99.40
7516;DHT22;3799;47.184;8.538;2023-04-25T05:59:41;10.30;99.10
7516;DHT22;3799;47.184;8.538;2023-04-25T06:02:08;10.30;99.20
7516;DHT22;3799;47.184;8.538;2023-04-25T06:04:36;10.30;97.10
7516;DHT22;3799;47.184;8.538;2023-04-25T06:07:04;10.50;96.40
7516;DHT22;3799;47.184;8.538;2023-04-25T06:09:31;10.30;96.60
7516;DHT22;3799;47.184;8.538;2023-04-25T06:11:59;10.50;97.00
7516;DHT22;3799;47.184;8.538;2023-04-25T06:14:27;10.80;97.00
7516;DHT22;3799;47.184;8.538;2023-04-25T06:16:56;10.70;96.40
7516;DHT22;3799;47.184;8.538;2023-04-25T06:19:23;10.70;96.40
7516;DHT22;3799;47.184;8.538;2023-04-25T06:21:51;10.60;96.40
7516;DHT22;3799;47.184;8.538;2023-04-25T06:24:19;10.60;96.60
7516;DHT22;3799;47.184;8.538;2023-04-25T06:26:46;10.50;96.50
7516;DHT22;3799;47.184;8.538;2023-04-25T06:29:26;10.60;97.90
7516;DHT22;3799;47.184;8.538;2023-04-25T06:31:53;10.60;96.00
7516;DHT22;3799;47.184;8.538;2023-04-25T06:34:21;10.40;98.70
7516;DHT22;3799;47.184;8.538;2023-04-25T06:36:48;10.40;99.80
7516;DHT22;3799;47.184;8.538;2023-04-25T06:39:16;9.90;99.90
7516;DHT22;3799;47.184;8.538;2023-04-25T06:41:43;10.10;99.90
7516;DHT22;3799;47.184;8.538;2023-04-25T06:44:14;10.10;99.90
7516;DHT22;3799;47.184;8.538;2023-04-25T06:46:42;10.00;99.90
7516;DHT22;3799;47.184;8.538;2023-04-25T06:49:11;9.80;99.90
7516;DHT22;3799;47.184;8.538;2023-04-25T06:51:40;9.60;99.90
7516;DHT22;3799;47.184;8.538;2023-04-25T06:54:08;9.50;99.90
7516;DHT22;3799;47.184;8.538;2023-04-25T06:56:43;9.50;99.90
7516;DHT22;3799;47.184;8.538;2023-04-25T06:59:10;9.20;99.90
7516;DHT22;3799;47.184;8.538;2023-04-25T07:01:38;9.20;99.90
7516;DHT22;3799;47.184;8.538;2023-04-25T07:04:06;9.30;99.90
7516;DHT22;3799;47.184;8.538;2023-04-25T07:06:33;9.00;99.90
7516;DHT22;3799;47.184;8.538;2023-04-25T07:09:00;9.00;99.90
7516;DHT22;3799;47.184;8.538;2023-04-25T07:11:29;9.00;99.90
7516;DHT22;3799;47.184;8.538;2023-04-25T07:13:57;9.00;99.90
7516;DHT22;3799;47.184;8.538;2023-04-25T07:16:24;9.10;99.90
7516;DHT22;3799;47.184;8.538;2023-04-25T07:18:52;8.90;99.90
7516;DHT22;3799;47.184;8.538;2023-04-25T07:21:22;8.60;99.90
7516;DHT22;3799;47.184;8.538;2023-04-25T07:23:51;9.00;99.90
7516;DHT22;3799;47.184;8.538;2023-04-25T07:26:19;8.80;99.90
7516;DHT22;3799;47.184;8.538;2023-04-25T07:28:54;8.70;99.90
7516;DHT22;3799;47.184;8.538;2023-04-25T07:31:22;8.50;99.90
7516;DHT22;3799;47.184;8.538;2023-04-25T07:33:51;8.50;99.90
7516;DHT22;3799;47.184;8.538;2023-04-25T07:36:19;8.50;99.90
7516;DHT22;3799;47.184;8.538;2023-04-25T07:38:48;8.70;99.90
7516;DHT22;3799;47.184;8.538;2023-04-25T07:41:16;8.60;99.90
7516;DHT22;3799;47.184;8.538;2023-04-25T07:43:45;8.40;99.90
7516;DHT22;3799;47.184;8.538;2023-04-25T07:46:23;8.70;99.90
7516;DHT22;3799;47.184;8.538;2023-04-25T07:48:50;8.40;99.90
7516;DHT22;3799;47.184;8.538;2023-04-25T07:51:20;8.50;99.90
7516;DHT22;3799;47.184;8.538;2023-04-25T07:53:49;8.50;99.90
7516;DHT22;3799;47.184;8.538;2023-04-25T07:56:18;8.60;99.90
7516;DHT22;3799;47.184;8.538;2023-04-25T07:58:46;8.80;99.90
7516;DHT22;3799;47.184;8.538;2023-04-25T08:01:15;8.70;99.90
7516;DHT22;3799;47.184;8.538;2023-04-25T08:03:43;8.80;99.90
7516;DHT22;3799;47.184;8.538;2023-04-25T08:06:11;8.80;99.90
7516;DHT22;3799;47.184;8.538;2023-04-25T08:08:39;8.60;99.90
7516;DHT22;3799;47.184;8.538;2023-04-25T08:11:09;8.70;99.90
7516;DHT22;3799;47.184;8.538;2023-04-25T08:13:37;8.90;99.90
7516;DHT22;3799;47.184;8.538;2023-04-25T08:16:05;8.80;99.90
7516;DHT22;3799;47.184;8.538;2023-04-25T08:18:32;9.10;99.90
7516;DHT22;3799;47.184;8.538;2023-04-25T08:20:59;9.40;99.90
7516;DHT22;3799;47.184;8.538;2023-04-25T08:23:29;9.40;99.90
7516;DHT22;3799;47.184;8.538;2023-04-25T08:25:57;9.70;99.90
7516;DHT22;3799;47.184;8.538;2023-04-25T08:28:25;9.80;99.90
7516;DHT22;3799;47.184;8.538;2023-04-25T08:30:52;9.70;99.90
7516;DHT22;3799;47.184;8.538;2023-04-25T08:33:20;9.70;99.90
7516;DHT22;3799;47.184;8.538;2023-04-25T08:35:47;9.80;99.90
7516;DHT22;3799;47.184;8.538;2023-04-25T08:38:19;9.60;99.90
7516;DHT22;3799;47.184;8.538;2023-04-25T08:40:50;9.90;99.90
7516;DHT22;3799;47.184;8.538;2023-04-25T08:43:20;9.90;99.90
7516;DHT22;3799;47.184;8.538;2023-04-25T08:45:48;9.80;99.90
7516;DHT22;3799;47.184;8.538;2023-04-25T08:48:16;10.10;99.90
7516;DHT22;3799;47.184;8.538;2023-04-25T08:50:51;10.10;99.90
7516;DHT22;3799;47.184;8.538;2023-04-25T08:53:26;10.40;99.90
7516;DHT22;3799;47.184;8.538;2023-04-25T08:55:58;10.30;99.90
7516;DHT22;3799;47.184;8.538;2023-04-25T08:58:29;10.60;99.90
7516;DHT22;3799;47.184;8.538;2023-04-25T09:00:58;10.60;99.90
7516;DHT22;3799;47.184;8.538;2023-04-25T09:03:27;10.60;99.90
7516;DHT22;3799;47.184;8.538;2023-04-25T09:05:55;10.70;99.90
7516;DHT22;3799;47.184;8.538;2023-04-25T09:08:23;10.50;99.90
7516;DHT22;3799;47.184;8.538;2023-04-25T09:10:50;10.60;99.90
7516;DHT22;3799;47.184;8.538;2023-04-25T09:13:25;10.50;99.90
7516;DHT22;3799;47.184;8.538;2023-04-25T09:15:55;10.30;99.90
7516;DHT22;3799;47.184;8.538;2023-04-25T09:18:30;10.00;99.90
7516;DHT22;3799;47.184;8.538;2023-04-25T09:21:14;9.90;99.90
7516;DHT22;3799;47.184;8.538;2023-04-25T09:23:47;9.70;99.90
7516;DHT22;3799;47.184;8.538;2023-04-25T09:26:20;9.40;99.90
7516;DHT22;3799;47.184;8.538;2023-04-25T09:28:47;9.70;99.90
7516;DHT22;3799;47.184;8.538;2023-04-25T09:31:22;9.70;99.90
7516;DHT22;3799;47.184;8.538;2023-04-25T09:34:00;9.40;99.90
7516;DHT22;3799;47.184;8.538;2023-04-25T09:36:30;9.40;99.90
7516;DHT22;3799;47.184;8.538;2023-04-25T09:38:59;9.20;99.90
7516;DHT22;3799;47.184;8.538;2023-04-25T09:41:30;9.30;99.90
7516;DHT22;3799;47.184;8.538;2023-04-25T09:43:58;9.00;99.90
7516;DHT22;3799;47.184;8.538;2023-04-25T09:46:34;8.90;99.90
7516;DHT22;3799;47.184;8.538;2023-04-25T09:49:07;9.20;99.90
7516;DHT22;3799;47.184;8.538;2023-04-25T09:51:35;9.00;99.90
7516;DHT22;3799;47.184;8.538;2023-04-25T09:54:03;9.20;99.90
7516;DHT22;3799;47.184;8.538;2023-04-25T09:56:38;9.00;99.90
7516;DHT22;3799;47.184;8.538;2023-04-25T09:59:07;8.80;99.90
7516;DHT22;3799;47.184;8.538;2023-04-25T10:01:36;8.80;99.90
7516;DHT22;3799;47.184;8.538;2023-04-25T10:04:10;9.00;99.90
7516;DHT22;3799;47.184;8.538;2023-04-25T10:06:40;8.80;99.90
7516;DHT22;3799;47.184;8.538;2023-04-25T10:09:08;8.90;99.90
7516;DHT22;3799;47.184;8.538;2023-04-25T10:11:36;8.80;99.90
7516;DHT22;3799;47.184;8.538;2023-04-25T10:14:05;8.70;99.90
7516;DHT22;3799;47.184;8.538;2023-04-25T10:16:33;8.80;99.90
7516;DHT22;3799;47.184;8.538;2023-04-25T10:19:01;9.00;99.90
7516;DHT22;3799;47.184;8.538;2023-04-25T10:21:33;8.80;99.90
7516;DHT22;3799;47.184;8.538;2023-04-25T10:24:01;9.00;99.90
7516;DHT22;3799;47.184;8.538;2023-04-25T10:26:29;9.10;99.90
7516;DHT22;3799;47.184;8.538;2023-04-25T10:28:59;9.30;99.90
7516;DHT22;3799;47.184;8.538;2023-04-25T10:31:30;9.20;99.90
7516;DHT22;3799;47.184;8.538;2023-04-25T10:33:59;9.50;99.90
7516;DHT22;3799;47.184;8.538;2023-04-25T10:36:31;9.80;99.90
7516;DHT22;3799;47.184;8.538;2023-04-25T10:39:04;9.80;99.90
7516;DHT22;3799;47.184;8.538;2023-04-25T10:41:52;10.20;99.90
7516;DHT22;3799;47.184;8.538;2023-04-25T10:44:20;10.60;99.90
7516;DHT22;3799;47.184;8.538;2023-04-25T10:46:48;10.60;99.90
7516;DHT22;3799;47.184;8.538;2023-04-25T10:49:31;10.40;99.90
7516;DHT22;3799;47.184;8.538;2023-04-25T10:54:54;10.50;99.90
7516;DHT22;3799;47.184;8.538;2023-04-25T11:02:44;10.20;99.90
7516;DHT22;3799;47.184;8.538;2023-04-25T11:05:23;10.20;99.90
7516;DHT22;3799;47.184;8.538;2023-04-25T11:07:58;9.80;99.90
7516;DHT22;3799;47.184;8.538;2023-04-25T11:10:34;10.10;99.90
7516;DHT22;3799;47.184;8.538;2023-04-25T11:13:10;10.10;99.90
7516;DHT22;3799;47.184;8.538;2023-04-25T11:15:38;10.00;99.90
7516;DHT22;3799;47.184;8.538;2023-04-25T11:18:05;10.10;99.90
7516;DHT22;3799;47.184;8.538;2023-04-25T11:20:36;10.10;99.90
7516;DHT22;3799;47.184;8.538;2023-04-25T11:23:06;10.10;99.90
7516;DHT22;3799;47.184;8.538;2023-04-25T11:25:34;10.30;99.90
7516;DHT22;3799;47.184;8.538;2023-04-25T11:28:04;10.30;99.90
7516;DHT22;3799;47.184;8.538;2023-04-25T11:30:32;10.60;99.90
7516;DHT22;3799;47.184;8.538;2023-04-25T11:32:59;10.70;99.90
7516;DHT22;3799;47.184;8.538;2023-04-25T11:35:27;10.90;99.90
7516;DHT22;3799;47.184;8.538;2023-04-25T11:37:55;11.10;99.90
7516;DHT22;3799;47.184;8.538;2023-04-25T11:40:22;11.00;99.90
7516;DHT22;3799;47.184;8.538;2023-04-25T11:42:50;10.90;99.90
7516;DHT22;3799;47.184;8.538;2023-04-25T11:45:22;10.60;99.90
7516;DHT22;3799;47.184;8.538;2023-04-25T11:47:50;10.10;99.90
7516;DHT22;3799;47.184;8.538;2023-04-25T11:50:20;10.10;99.90
7516;DHT22;3799;47.184;8.538;2023-04-25T11:52:48;9.80;99.90
7516;DHT22;3799;47.184;8.538;2023-04-25T11:55:22;10.10;99.90
7516;DHT22;3799;47.184;8.538;2023-04-25T11:57:50;9.90;99.90
7516;DHT22;3799;47.184;8.538;2023-04-25T12:00:19;9.80;99.90
7516;DHT22;3799;47.184;8.538;2023-04-25T12:02:52;9.20;99.90
7516;DHT22;3799;47.184;8.538;2023-04-25T12:05:24;8.90;99.90
7516;DHT22;3799;47.184;8.538;2023-04-25T12:08:13;9.00;99.90
7516;DHT22;3799;47.184;8.538;2023-04-25T12:10:43;8.50;99.90
7516;DHT22;3799;47.184;8.538;2023-04-25T12:15:57;8.20;99.90
7516;DHT22;3799;47.184;8.538;2023-04-25T12:18:35;8.00;99.90
7516;DHT22;3799;47.184;8.538;2023-04-25T12:21:04;8.50;99.90
7516;DHT22;3799;47.184;8.538;2023-04-25T12:23:32;8.90;99.90
7516;DHT22;3799;47.184;8.538;2023-04-25T12:26:07;9.50;99.90
7516;DHT22;3799;47.184;8.538;2023-04-25T12:28:35;10.00;99.90
7516;DHT22;3799;47.184;8.538;2023-04-25T12:31:06;10.40;99.90
7516;DHT22;3799;47.184;8.538;2023-04-25T12:33:36;10.70;99.90
7516;DHT22;3799;47.184;8.538;2023-04-25T12:36:04;11.10;99.90
7516;DHT22;3799;47.184;8.538;2023-04-25T12:38:40;11.90;99.90
7516;DHT22;3799;47.184;8.538;2023-04-25T12:41:09;11.90;99.90
7516;DHT22;3799;47.184;8.538;2023-04-25T12:43:36;12.50;99.90
7516;DHT22;3799;47.184;8.538;2023-04-25T12:46:03;12.50;99.90
7516;DHT22;3799;47.184;8.538;2023-04-25T12:48:30;12.60;99.90
7516;DHT22;3799;47.184;8.538;2023-04-25T12:50:58;12.50;99.90
7516;DHT22;3799;47.184;8.538;2023-04-25T12:53:25;12.40;99.90
7516;DHT22;3799;47.184;8.538;2023-04-25T12:55:53;12.60;99.90
7516;DHT22;3799;47.184;8.538;2023-04-25T12:58:21;12.50;99.90
7516;DHT22;3799;47.184;8.538;2023-04-25T13:00:48;12.90;99.90
7516;DHT22;3799;47.184;8.538;2023-04-25T13:03:16;13.40;99.90
7516;DHT22;3799;47.184;8.538;2023-04-25T13:05:45;13.70;98.10
7516;DHT22;3799;47.184;8.538;2023-04-25T13:08:13;13.70;95.30
7516;DHT22;3799;47.184;8.538;2023-04-25T13:10:47;13.80;94.90
7516;DHT22;3799;47.184;8.538;2023-04-25T13:13:16;13.70;92.10
7516;DHT22;3799;47.184;8.538;2023-04-25T13:15:44;13.70;92.00
7516;DHT22;3799;47.184;8.538;2023-04-25T13:18:12;14.00;92.60
7516;DHT22;3799;47.184;8.538;2023-04-25T13:20:39;14.40;90.90
7516;DHT22;3799;47.184;8.538;2023-04-25T13:23:07;14.80;87.00
7516;DHT22;3799;47.184;8.538;2023-04-25T13:25:34;15.40;76.20
7516;DHT22;3799;47.184;8.538;2023-04-25T13:28:02;15.90;76.50
7516;DHT22;3799;47.184;8.538;2023-04-25T13:30:30;16.10;74.20
7516;DHT22;3799;47.184;8.538;2023-04-25T13:32:59;16.20;71.30
7516;DHT22;3799;47.184;8.538;2023-04-25T13:35:30;16.40;63.30
7516;DHT22;3799;47.184;8.538;2023-04-25T13:38:15;16.20;63.10
7516;DHT22;3799;47.184;8.538;2023-04-25T13:40:42;15.70;63.40
7516;DHT22;3799;47.184;8.538;2023-04-25T13:43:10;15.90;64.70
7516;DHT22;3799;47.184;8.538;2023-04-25T13:45:38;15.30;61.70
7516;DHT22;3799;47.184;8.538;2023-04-25T13:48:06;15.00;61.40
7516;DHT22;3799;47.184;8.538;2023-04-25T13:50:34;14.90;61.00
7516;DHT22;3799;47.184;8.538;2023-04-25T13:53:01;14.70;62.70
7516;DHT22;3799;47.184;8.538;2023-04-25T13:55:29;15.20;64.60
7516;DHT22;3799;47.184;8.538;2023-04-25T13:57:57;16.00;60.90
7516;DHT22;3799;47.184;8.538;2023-04-25T14:00:24;16.90;59.30
7516;DHT22;3799;47.184;8.538;2023-04-25T14:02:52;17.30;56.40
7516;DHT22;3799;47.184;8.538;2023-04-25T14:05:20;17.50;56.50
7516;DHT22;3799;47.184;8.538;2023-04-25T14:07:48;17.20;55.50
7516;DHT22;3799;47.184;8.538;2023-04-25T14:10:15;17.30;54.50
7516;DHT22;3799;47.184;8.538;2023-04-25T14:12:43;17.10;53.80
7516;DHT22;3799;47.184;8.538;2023-04-25T14:15:10;16.80;53.40
7516;DHT22;3799;47.184;8.538;2023-04-25T14:17:38;16.60;53.10
7516;DHT22;3799;47.184;8.538;2023-04-25T14:20:08;16.40;54.00
7516;DHT22;3799;47.184;8.538;2023-04-25T14:22:36;16.20;54.10
7516;DHT22;3799;47.184;8.538;2023-04-25T14:25:04;15.40;54.80
7516;DHT22;3799;47.184;8.538;2023-04-25T14:27:32;15.70;55.00
7516;DHT22;3799;47.184;8.538;2023-04-25T14:30:00;15.10;55.10
7516;DHT22;3799;47.184;8.538;2023-04-25T14:32:29;14.90;55.80
7516;DHT22;3799;47.184;8.538;2023-04-25T14:34:59;14.60;56.40
7516;DHT22;3799;47.184;8.538;2023-04-25T14:37:26;14.20;57.80
7516;DHT22;3799;47.184;8.538;2023-04-25T14:39:57;14.40;59.90
7516;DHT22;3799;47.184;8.538;2023-04-25T14:42:24;14.20;59.40
7516;DHT22;3799;47.184;8.538;2023-04-25T14:44:51;13.90;59.10
7516;DHT22;3799;47.184;8.538;2023-04-25T14:47:18;13.70;59.10
7516;DHT22;3799;47.184;8.538;2023-04-25T14:49:46;13.70;60.40
7516;DHT22;3799;47.184;8.538;2023-04-25T14:52:19;13.30;58.80
7516;DHT22;3799;47.184;8.538;2023-04-25T14:54:46;13.10;58.80
7516;DHT22;3799;47.184;8.538;2023-04-25T14:57:15;13.20;58.80
7516;DHT22;3799;47.184;8.538;2023-04-25T14:59:43;13.00;59.70
7516;DHT22;3799;47.184;8.538;2023-04-25T15:02:10;12.90;59.70
7516;DHT22;3799;47.184;8.538;2023-04-25T15:04:39;12.40;60.60
7516;DHT22;3799;47.184;8.538;2023-04-25T15:07:06;12.30;66.10
7516;DHT22;3799;47.184;8.538;2023-04-25T15:09:33;12.30;67.30
7516;DHT22;3799;47.184;8.538;2023-04-25T15:12:01;12.10;68.70
7516;DHT22;3799;47.184;8.538;2023-04-25T15:14:29;12.00;70.00
7516;DHT22;3799;47.184;8.538;2023-04-25T15:16:57;12.00;71.00
7516;DHT22;3799;47.184;8.538;2023-04-25T15:19:24;12.00;73.00
7516;DHT22;3799;47.184;8.538;2023-04-25T15:21:52;11.50;84.50
7516;DHT22;3799;47.184;8.538;2023-04-25T15:24:20;11.50;96.40
7516;DHT22;3799;47.184;8.538;2023-04-25T15:26:50;10.80;99.90
7516;DHT22;3799;47.184;8.538;2023-04-25T15:29:18;10.70;99.90
7516;DHT22;3799;47.184;8.538;2023-04-25T15:31:46;10.30;99.90
7516;DHT22;3799;47.184;8.538;2023-04-25T15:34:14;10.20;99.90
7516;DHT22;3799;47.184;8.538;2023-04-25T15:36:42;10.00;99.90
7516;DHT22;3799;47.184;8.538;2023-04-25T15:39:09;10.00;99.90
7516;DHT22;3799;47.184;8.538;2023-04-25T15:41:43;9.70;99.90
7516;DHT22;3799;47.184;8.538;2023-04-25T15:44:11;9.80;99.90
7516;DHT22;3799;47.184;8.538;2023-04-25T15:46:39;9.50;99.90
7516;DHT22;3799;47.184;8.538;2023-04-25T15:49:07;9.50;99.90
7516;DHT22;3799;47.184;8.538;2023-04-25T15:51:39;9.80;99.90
7516;DHT22;3799;47.184;8.538;2023-04-25T15:54:06;9.70;99.90
7516;DHT22;3799;47.184;8.538;2023-04-25T15:56:34;9.70;99.90
7516;DHT22;3799;47.184;8.538;2023-04-25T15:59:01;9.80;99.90
7516;DHT22;3799;47.184;8.538;2023-04-25T16:01:29;9.90;99.90
7516;DHT22;3799;47.184;8.538;2023-04-25T16:03:57;9.80;99.90
7516;DHT22;3799;47.184;8.538;2023-04-25T16:06:26;10.10;99.90
7516;DHT22;3799;47.184;8.538;2023-04-25T16:08:53;10.00;99.90
7516;DHT22;3799;47.184;8.538;2023-04-25T16:11:21;10.40;99.90
7516;DHT22;3799;47.184;8.538;2023-04-25T16:13:48;10.20;99.90
7516;DHT22;3799;47.184;8.538;2023-04-25T16:16:16;10.40;99.90
7516;DHT22;3799;47.184;8.538;2023-04-25T16:18:44;10.60;99.90
7516;DHT22;3799;47.184;8.538;2023-04-25T16:21:11;10.50;99.90
7516;DHT22;3799;47.184;8.538;2023-04-25T16:23:43;10.70;99.90
7516;DHT22;3799;47.184;8.538;2023-04-25T16:26:10;10.90;99.90
7516;DHT22;3799;47.184;8.538;2023-04-25T16:28:38;11.10;99.90
7516;DHT22;3799;47.184;8.538;2023-04-25T16:31:05;10.90;99.90